createdAt,value
2023-04-07T00:00:20.629Z,6.06
2023-04-07T00:05:22.285Z,6.10
2023-04-07T00:10:24.833Z,6.11
2023-04-07T00:15:26.624Z,6.10
2023-04-07T00:20:28.418Z,6.13
2023-04-07T00:25:30.026Z,6.12
2023-04-07T00:30:31.673Z,6.19
2023-04-07T00:35:33.360Z,6.23
2023-04-07T00:40:35.028Z,6.18
2023-04-07T00:45:38.112Z,6.19
2023-04-07T00:50:40.021Z,6.14
2023-04-07T00:55:41.720Z,6.14
2023-04-07T01:00:55.396Z,6.17
2023-04-07T01:06:02.176Z,6.20
2023-04-07T01:11:13.319Z,6.23
2023-04-07T01:16:30.466Z,6.19
2023-04-07T01:21:35.164Z,6.17
2023-04-07T01:26:38.217Z,6.08
2023-04-07T01:31:42.109Z,6.06
2023-04-07T01:36:47.038Z,6.12
2023-04-07T01:41:50.824Z,6.00
2023-04-07T01:46:53.110Z,6.06
2023-04-07T01:51:56.100Z,6.02
2023-04-07T01:56:57.785Z,5.90
2023-04-07T02:02:00.647Z,5.91
2023-04-07T02:07:09.644Z,5.94
2023-04-07T02:12:17.404Z,5.94
2023-04-07T02:17:34.915Z,5.97
2023-04-07T02:22:38.579Z,5.87
2023-04-07T02:27:40.289Z,5.83
2023-04-07T02:32:42.097Z,5.82
2023-04-07T02:37:45.541Z,5.82
2023-04-07T02:42:48.394Z,5.71
2023-04-07T02:47:50.174Z,5.63
2023-04-07T02:52:52.991Z,5.65
2023-04-07T02:57:54.693Z,5.59
2023-04-07T03:03:10.189Z,5.58
2023-04-07T03:08:14.962Z,5.60
2023-04-07T03:13:19.122Z,5.57
2023-04-07T03:18:20.974Z,5.51
2023-04-07T03:23:24.036Z,5.47
2023-04-07T03:28:26.598Z,5.36
2023-04-07T03:33:29.604Z,5.39
2023-04-07T03:38:31.738Z,5.29
2023-04-07T03:43:37.006Z,5.31
2023-04-07T03:48:39.169Z,5.25
2023-04-07T03:53:43.277Z,5.15
2023-04-07T03:58:59.982Z,5.26
2023-04-07T04:04:06.442Z,5.18
2023-04-07T04:09:08.192Z,5.25
2023-04-07T04:14:14.450Z,5.21
2023-04-07T04:19:18.271Z,5.23
2023-04-07T04:24:20.196Z,5.13
2023-04-07T04:29:23.741Z,5.27
2023-04-07T04:34:27.611Z,5.25
2023-04-07T04:39:30.602Z,5.30
2023-04-07T04:44:33.081Z,5.26
2023-04-07T04:49:37.366Z,5.25
2023-04-07T04:54:39.682Z,5.25
2023-04-07T04:59:42.623Z,5.37
2023-04-07T05:04:44.492Z,5.41
2023-04-07T05:10:02.605Z,5.47
2023-04-07T05:15:07.278Z,5.53
2023-04-07T05:20:10.407Z,5.61
2023-04-07T05:25:15.083Z,5.60
2023-04-07T05:30:19.834Z,5.67
2023-04-07T05:35:21.602Z,5.77
2023-04-07T05:40:30.347Z,5.69
2023-04-07T05:45:35.595Z,5.70
2023-04-07T05:50:37.665Z,5.77
2023-04-07T05:55:43.809Z,5.88
2023-04-07T06:00:50.857Z,5.97
2023-04-07T06:05:53.596Z,6.06
2023-04-07T06:10:56.842Z,6.11
2023-04-07T06:15:58.705Z,6.36
2023-04-07T06:21:00.795Z,6.40
2023-04-07T06:26:02.493Z,6.54
2023-04-07T06:31:05.212Z,6.61
2023-04-07T06:36:07.602Z,6.68
2023-04-07T06:41:16.886Z,6.86
2023-04-07T06:46:19.308Z,6.97
2023-04-07T06:51:21.096Z,7.02
2023-04-07T06:56:23.300Z,7.21
2023-04-07T07:01:24.952Z,7.48
2023-04-07T07:06:27.482Z,7.46
2023-04-07T07:11:29.250Z,7.54
2023-04-07T07:16:31.136Z,7.57
2023-04-07T07:21:32.988Z,7.58
2023-04-07T07:26:34.642Z,7.78
2023-04-07T07:31:36.335Z,7.88
2023-04-07T07:36:38.056Z,7.94
2023-04-07T07:41:40.372Z,8.12
2023-04-07T07:46:42.033Z,8.26
2023-04-07T07:51:44.195Z,8.40
2023-04-07T07:56:45.842Z,8.48
2023-04-07T08:01:47.663Z,8.64
2023-04-07T08:06:50.886Z,8.50
2023-04-07T08:11:52.815Z,8.83
2023-04-07T08:16:54.661Z,9.11
2023-04-07T08:21:56.990Z,9.35
2023-04-07T08:26:58.672Z,9.38
2023-04-07T08:32:00.477Z,9.13
2023-04-07T08:37:02.799Z,9.05
2023-04-07T08:42:04.655Z,8.88
2023-04-07T08:47:08.030Z,8.92
2023-04-07T08:52:13.220Z,8.95
2023-04-07T08:57:16.629Z,9.07
2023-04-07T09:02:19.569Z,9.02
2023-04-07T09:07:21.365Z,9.06
2023-04-07T09:12:23.052Z,8.92
2023-04-07T09:17:29.159Z,9.00
2023-04-07T09:22:47.252Z,8.80
2023-04-07T09:27:59.419Z,8.94
2023-04-07T09:33:02.066Z,8.78
2023-04-07T09:38:03.747Z,8.82
2023-04-07T09:43:06.467Z,8.97
2023-04-07T09:48:19.385Z,8.85
2023-04-07T09:53:23.267Z,8.84
2023-04-07T09:58:25.149Z,9.05
2023-04-07T10:03:28.283Z,8.94
2023-04-07T10:08:36.308Z,8.82
2023-04-07T10:13:40.770Z,8.33
2023-04-07T10:18:42.834Z,8.68
2023-04-07T10:23:59.986Z,8.65
2023-04-07T10:29:08.391Z,8.60
2023-04-07T10:34:10.035Z,8.44
2023-04-07T10:39:11.824Z,8.73
2023-04-07T10:44:43.060Z,8.75
2023-04-07T10:50:18.231Z,8.74
2023-04-07T10:55:39.182Z,8.58
2023-04-07T11:00:41.657Z,8.94
2023-04-07T11:05:43.633Z,8.90
2023-04-07T11:10:48.255Z,8.79
2023-04-07T11:15:53.928Z,9.06
2023-04-07T11:21:00.182Z,9.54
2023-04-07T11:26:03.176Z,9.69
2023-04-07T11:31:04.980Z,9.70
2023-04-07T11:36:07.664Z,9.41
2023-04-07T11:41:16.024Z,9.14
2023-04-07T11:46:18.940Z,9.38
2023-04-07T11:51:25.283Z,9.63
2023-04-07T11:56:28.086Z,9.14
2023-04-07T12:01:41.450Z,8.74
2023-04-07T12:06:44.866Z,8.79
2023-04-07T12:11:50.250Z,8.54
2023-04-07T12:16:53.357Z,8.72
2023-04-07T12:21:56.365Z,8.87
2023-04-07T12:26:58.233Z,8.71
2023-04-07T12:32:00.795Z,8.86
2023-04-07T12:37:02.454Z,8.78
2023-04-07T12:42:05.214Z,8.92
2023-04-07T12:47:07.056Z,8.91
2023-04-07T12:52:08.949Z,8.47
2023-04-07T12:57:11.109Z,8.36
2023-04-07T13:02:13.930Z,8.66
2023-04-07T13:07:16.282Z,8.40
2023-04-07T13:12:17.922Z,8.48
2023-04-07T13:17:19.724Z,8.29
2023-04-07T13:22:24.326Z,8.17
2023-04-07T13:27:27.481Z,8.41
2023-04-07T13:32:29.306Z,8.38
2023-04-07T13:37:31.154Z,8.30
2023-04-07T13:42:33.027Z,8.32
2023-04-07T13:47:35.418Z,8.42
2023-04-07T13:52:37.514Z,8.25
2023-04-07T13:57:39.392Z,8.79
2023-04-07T14:02:41.388Z,8.38
2023-04-07T14:07:43.191Z,8.31
2023-04-07T14:12:45.110Z,8.36
2023-04-07T14:17:47.044Z,8.01
2023-04-07T14:22:48.795Z,8.13
2023-04-07T14:27:52.244Z,8.30
2023-04-07T14:32:53.963Z,8.22
2023-04-07T14:37:56.853Z,8.19
2023-04-07T14:48:04.113Z,8.80
2023-04-07T14:53:06.687Z,8.75
2023-04-07T14:58:08.551Z,8.55
2023-04-07T15:03:14.362Z,8.49
2023-04-07T15:08:19.434Z,8.08
2023-04-07T15:13:21.838Z,8.27
2023-04-07T15:18:25.203Z,8.42
2023-04-07T15:23:27.045Z,8.58
2023-04-07T15:28:32.701Z,8.52
2023-04-07T15:33:37.807Z,8.27
2023-04-07T15:38:40.839Z,8.16
2023-04-07T15:43:43.184Z,8.48
2023-04-07T15:48:46.165Z,8.41
2023-04-07T15:53:48.595Z,8.50
2023-04-07T15:58:51.073Z,8.94
2023-04-07T16:03:54.163Z,8.91
2023-04-07T16:08:56.965Z,8.76
2023-04-07T16:13:59.281Z,8.89
2023-04-07T16:19:02.453Z,8.90
2023-04-07T16:24:04.469Z,9.05
2023-04-07T16:29:06.574Z,9.14
2023-04-07T16:34:08.556Z,9.02
2023-04-07T16:39:10.795Z,8.95
2023-04-07T16:44:12.747Z,8.37
2023-04-07T16:49:14.524Z,8.31
2023-04-07T16:54:16.191Z,8.41
2023-04-07T16:59:17.859Z,8.05
2023-04-07T17:04:19.645Z,8.15
2023-04-07T17:09:21.494Z,8.08
2023-04-07T17:14:23.354Z,8.11
2023-04-07T17:19:25.189Z,8.21
2023-04-07T17:24:26.885Z,8.25
2023-04-07T17:29:31.246Z,8.33
2023-04-07T17:34:33.085Z,8.21
2023-04-07T17:39:34.966Z,8.38
2023-04-07T17:44:37.487Z,8.34
2023-04-07T17:49:39.701Z,8.19
2023-04-07T17:54:41.773Z,8.07
2023-04-07T17:59:43.526Z,8.06
2023-04-07T18:04:45.652Z,8.28
2023-04-07T18:09:47.721Z,8.33
2023-04-07T18:14:49.474Z,8.29
2023-04-07T18:19:51.548Z,8.35
2023-04-07T18:24:53.214Z,8.31
2023-04-07T18:29:56.212Z,8.31
2023-04-07T18:34:57.965Z,8.32
2023-04-07T18:39:59.659Z,8.17
2023-04-07T18:45:01.542Z,8.05
2023-04-07T18:50:03.600Z,8.02
2023-04-07T18:55:06.060Z,7.87
2023-04-07T19:00:08.728Z,7.91
2023-04-07T19:05:13.498Z,8.02
2023-04-07T19:10:15.098Z,8.02
2023-04-07T19:15:16.810Z,8.05
2023-04-07T19:20:18.550Z,8.07
2023-04-07T19:25:20.395Z,8.01
2023-04-07T19:30:22.244Z,8.03
2023-04-07T19:35:23.909Z,8.05
2023-04-07T19:40:26.117Z,8.07
2023-04-07T19:45:27.847Z,8.05
2023-04-07T19:50:29.570Z,8.02
2023-04-07T19:55:31.217Z,8.00
2023-04-07T20:00:35.002Z,7.99
2023-04-07T20:05:37.178Z,8.00
2023-04-07T20:10:39.164Z,7.97
2023-04-07T20:15:41.012Z,7.95
2023-04-07T20:20:42.616Z,7.92
2023-04-07T20:25:44.421Z,7.88
2023-04-07T20:30:46.380Z,7.85
2023-04-07T20:35:49.084Z,7.86
2023-04-07T20:40:51.133Z,7.84
2023-04-07T20:45:53.521Z,7.82
2023-04-07T20:50:55.206Z,7.74
2023-04-07T20:55:59.044Z,7.67
2023-04-07T21:01:01.554Z,7.37
2023-04-07T21:06:04.746Z,7.19
2023-04-07T21:11:06.524Z,7.30
2023-04-07T21:16:08.662Z,7.21
2023-04-07T21:21:10.380Z,6.89
2023-04-07T21:26:12.068Z,6.45
2023-04-07T21:31:24.160Z,6.51
2023-04-07T21:36:27.016Z,6.69
2023-04-07T21:41:28.679Z,6.64
2023-04-07T21:46:30.893Z,6.61
2023-04-07T21:51:33.733Z,6.57
2023-04-07T21:56:35.840Z,6.54
2023-04-07T22:01:37.636Z,6.58
2023-04-07T22:06:39.605Z,6.53
2023-04-07T22:11:41.396Z,6.45
2023-04-07T22:16:43.127Z,6.35
2023-04-07T22:21:45.355Z,6.34
2023-04-07T22:26:47.000Z,6.19
2023-04-07T22:31:48.805Z,6.13
2023-04-07T22:36:50.528Z,6.13
2023-04-07T22:41:52.113Z,6.04
2023-04-07T22:46:54.021Z,5.89
2023-04-07T22:51:57.103Z,5.69
2023-04-07T22:56:58.918Z,5.50
2023-04-07T23:02:00.843Z,5.11
2023-04-07T23:07:02.746Z,5.30
2023-04-07T23:12:04.514Z,5.33
2023-04-07T23:17:06.776Z,4.60
2023-04-07T23:22:08.585Z,4.62
2023-04-07T23:27:10.387Z,4.76
2023-04-07T23:32:12.244Z,4.78
2023-04-07T23:37:21.295Z,4.64
2023-04-07T23:42:24.164Z,4.57
2023-04-07T23:47:26.408Z,4.64
2023-04-07T23:52:28.254Z,4.64
2023-04-07T23:57:30.061Z,4.69
